sensor_id;sensor_type;location;lat;lon;timestamp;pressure;altitude;pressure_sealevel;temperature;humidity
82986;BME280;72786;53.546;9.910;2024-02-14T00:00:11;100955.25;;;7.87;76.09
82986;BME280;72786;53.546;9.910;2024-02-14T00:02:45;100949.41;;;7.88;76.12
82986;BME280;72786;53.546;9.910;2024-02-14T00:05:15;100953.44;;;7.86;76.82
82986;BME280;72786;53.546;9.910;2024-02-14T00:07:42;100951.34;;;7.82;77.19
82986;BME280;72786;53.546;9.910;2024-02-14T00:10:09;100948.53;;;7.87;76.95
82986;BME280;72786;53.546;9.910;2024-02-14T00:12:36;100944.88;;;7.85;76.84
82986;BME280;72786;53.546;9.910;2024-02-14T00:15:04;100921.47;;;7.65;76.60
82986;BME280;72786;53.546;9.910;2024-02-14T00:17:32;100953.06;;;7.74;77.42
82986;BME280;72786;53.546;9.910;2024-02-14T00:20:03;100918.44;;;7.61;77.69
82986;BME280;72786;53.546;9.910;2024-02-14T00:22:31;100915.06;;;7.53;77.08
82986;BME280;72786;53.546;9.910;2024-02-14T00:24:57;100955.31;;;7.71;77.45
82986;BME280;72786;53.546;9.910;2024-02-14T00:27:24;100947.28;;;7.60;77.94
82986;BME280;72786;53.546;9.910;2024-02-14T00:29:52;100949.69;;;7.58;77.04
82986;BME280;72786;53.546;9.910;2024-02-14T00:32:20;100931.34;;;7.62;77.20
82986;BME280;72786;53.546;9.910;2024-02-14T00:34:46;100944.38;;;7.72;77.22
82986;BME280;72786;53.546;9.910;2024-02-14T00:37:13;100943.38;;;7.63;77.33
82986;BME280;72786;53.546;9.910;2024-02-14T00:39:40;100938.63;;;7.66;77.96
82986;BME280;72786;53.546;9.910;2024-02-14T00:42:06;100939.34;;;7.65;78.39
82986;BME280;72786;53.546;9.910;2024-02-14T00:44:33;100921.72;;;7.60;78.47
82986;BME280;72786;53.546;9.910;2024-02-14T00:47:00;100922.63;;;7.60;78.57
82986;BME280;72786;53.546;9.910;2024-02-14T00:49:28;100916.56;;;7.51;78.81
82986;BME280;72786;53.546;9.910;2024-02-14T00:51:55;100930.38;;;7.53;79.23
82986;BME280;72786;53.546;9.910;2024-02-14T00:54:21;100911.22;;;7.42;79.46
82986;BME280;72786;53.546;9.910;2024-02-14T00:56:48;100928.25;;;7.49;79.23
82986;BME280;72786;53.546;9.910;2024-02-14T00:59:14;100926.44;;;7.48;80.04
82986;BME280;72786;53.546;9.910;2024-02-14T01:01:41;100919.88;;;7.50;80.20
82986;BME280;72786;53.546;9.910;2024-02-14T01:04:07;100910.38;;;7.49;79.56
82986;BME280;72786;53.546;9.910;2024-02-14T01:06:34;100928.56;;;7.52;79.37
82986;BME280;72786;53.546;9.910;2024-02-14T01:09:00;100889.50;;;7.30;79.51
82986;BME280;72786;53.546;9.910;2024-02-14T01:11:27;100917.13;;;7.49;79.87
82986;BME280;72786;53.546;9.910;2024-02-14T01:13:55;100922.50;;;7.44;80.91
82986;BME280;72786;53.546;9.910;2024-02-14T01:16:21;100917.72;;;7.47;81.72
82986;BME280;72786;53.546;9.910;2024-02-14T01:18:47;100895.34;;;7.29;81.85
82986;BME280;72786;53.546;9.910;2024-02-14T01:21:14;100918.72;;;7.40;82.47
82986;BME280;72786;53.546;9.910;2024-02-14T01:23:41;100919.72;;;7.34;83.24
82986;BME280;72786;53.546;9.910;2024-02-14T01:26:07;100911.75;;;7.31;82.85
82986;BME280;72786;53.546;9.910;2024-02-14T01:28:33;100912.16;;;7.27;83.55
82986;BME280;72786;53.546;9.910;2024-02-14T01:31:00;100900.06;;;7.17;85.04
82986;BME280;72786;53.546;9.910;2024-02-14T01:33:26;100900.66;;;7.15;85.81
82986;BME280;72786;53.546;9.910;2024-02-14T01:35:53;100905.13;;;7.09;88.12
82986;BME280;72786;53.546;9.910;2024-02-14T01:38:20;100896.72;;;7.10;87.48
82986;BME280;72786;53.546;9.910;2024-02-14T01:40:46;100892.75;;;7.05;88.15
82986;BME280;72786;53.546;9.910;2024-02-14T01:43:13;100899.03;;;7.00;88.50
82986;BME280;72786;53.546;9.910;2024-02-14T01:45:40;100861.25;;;6.73;88.82
82986;BME280;72786;53.546;9.910;2024-02-14T01:48:08;100867.59;;;6.77;89.21
82986;BME280;72786;53.546;9.910;2024-02-14T01:50:36;100893.66;;;6.90;90.33
82986;BME280;72786;53.546;9.910;2024-02-14T01:53:03;100888.75;;;6.91;89.62
82986;BME280;72786;53.546;9.910;2024-02-14T01:55:30;100853.75;;;6.75;90.03
82986;BME280;72786;53.546;9.910;2024-02-14T01:57:57;100884.78;;;6.86;89.58
82986;BME280;72786;53.546;9.910;2024-02-14T02:00:23;100877.13;;;6.86;91.09
82986;BME280;72786;53.546;9.910;2024-02-14T02:02:53;100831.41;;;6.57;91.28
82986;BME280;72786;53.546;9.910;2024-02-14T02:05:22;100854.75;;;6.69;91.38
82986;BME280;72786;53.546;9.910;2024-02-14T02:07:49;100867.19;;;6.81;91.47
82986;BME280;72786;53.546;9.910;2024-02-14T02:10:16;100867.94;;;6.80;91.84
82986;BME280;72786;53.546;9.910;2024-02-14T02:12:42;100875.75;;;6.81;92.09
82986;BME280;72786;53.546;9.910;2024-02-14T02:15:10;100857.97;;;6.74;92.88
82986;BME280;72786;53.546;9.910;2024-02-14T02:17:39;100863.97;;;6.75;93.10
82986;BME280;72786;53.546;9.910;2024-02-14T02:20:06;100845.22;;;6.74;92.87
82986;BME280;72786;53.546;9.910;2024-02-14T02:22:35;100857.38;;;6.77;93.22
82986;BME280;72786;53.546;9.910;2024-02-14T02:25:03;100844.72;;;6.70;93.20
82986;BME280;72786;53.546;9.910;2024-02-14T02:27:29;100851.97;;;6.74;93.55
82986;BME280;72786;53.546;9.910;2024-02-14T02:29:56;100823.59;;;6.56;93.75
82986;BME280;72786;53.546;9.910;2024-02-14T02:32:22;100841.09;;;6.68;93.69
82986;BME280;72786;53.546;9.910;2024-02-14T02:34:49;100836.16;;;6.70;94.35
82986;BME280;72786;53.546;9.910;2024-02-14T02:37:15;100838.53;;;6.68;93.24
82986;BME280;72786;53.546;9.910;2024-02-14T02:39:43;100831.47;;;6.66;93.55
82986;BME280;72786;53.546;9.910;2024-02-14T02:42:09;100831.31;;;6.64;93.42
82986;BME280;72786;53.546;9.910;2024-02-14T02:44:38;100819.13;;;6.62;93.65
82986;BME280;72786;53.546;9.910;2024-02-14T02:47:04;100817.91;;;6.58;94.26
82986;BME280;72786;53.546;9.910;2024-02-14T02:49:31;100822.28;;;6.59;94.04
82986;BME280;72786;53.546;9.910;2024-02-14T02:51:57;100811.00;;;6.57;94.16
82986;BME280;72786;53.546;9.910;2024-02-14T02:54:24;100816.44;;;6.60;93.40
82986;BME280;72786;53.546;9.910;2024-02-14T02:56:50;100818.88;;;6.52;93.74
82986;BME280;72786;53.546;9.910;2024-02-14T02:59:17;100812.47;;;6.55;94.11
82986;BME280;72786;53.546;9.910;2024-02-14T03:01:43;100822.28;;;6.59;93.62
82986;BME280;72786;53.546;9.910;2024-02-14T03:04:10;100811.56;;;6.55;93.66
82986;BME280;72786;53.546;9.910;2024-02-14T03:06:39;100815.75;;;6.54;93.54
82986;BME280;72786;53.546;9.910;2024-02-14T03:09:06;100808.28;;;6.56;93.84
82986;BME280;72786;53.546;9.910;2024-02-14T03:11:34;100777.28;;;6.44;94.13
82986;BME280;72786;53.546;9.910;2024-02-14T03:14:03;100794.38;;;6.45;94.30
82986;BME280;72786;53.546;9.910;2024-02-14T03:16:30;100790.09;;;6.53;93.46
82986;BME280;72786;53.546;9.910;2024-02-14T03:18:57;100802.25;;;6.55;94.06
82986;BME280;72786;53.546;9.910;2024-02-14T03:21:25;100800.78;;;6.57;94.38
82986;BME280;72786;53.546;9.910;2024-02-14T03:23:51;100793.28;;;6.59;94.03
82986;BME280;72786;53.546;9.910;2024-02-14T03:26:20;100766.34;;;6.45;93.66
82986;BME280;72786;53.546;9.910;2024-02-14T03:28:46;100788.38;;;6.60;94.46
82986;BME280;72786;53.546;9.910;2024-02-14T03:31:15;100782.19;;;6.58;94.61
82986;BME280;72786;53.546;9.910;2024-02-14T03:33:42;100768.81;;;6.52;93.85
82986;BME280;72786;53.546;9.910;2024-02-14T03:36:09;100770.75;;;6.55;94.87
82986;BME280;72786;53.546;9.910;2024-02-14T03:38:36;100740.94;;;6.38;94.03
82986;BME280;72786;53.546;9.910;2024-02-14T03:41:06;100729.75;;;6.29;94.39
82986;BME280;72786;53.546;9.910;2024-02-14T03:43:32;100760.06;;;6.50;94.53
82986;BME280;72786;53.546;9.910;2024-02-14T03:45:58;100765.25;;;6.43;95.08
82986;BME280;72786;53.546;9.910;2024-02-14T03:48:25;100771.44;;;6.45;94.89
82986;BME280;72786;53.546;9.910;2024-02-14T03:50:52;100733.63;;;6.26;94.85
82986;BME280;72786;53.546;9.910;2024-02-14T03:53:18;100759.81;;;6.40;95.36
82986;BME280;72786;53.546;9.910;2024-02-14T03:55:44;100744.88;;;6.28;95.79
82986;BME280;72786;53.546;9.910;2024-02-14T03:58:11;100754.19;;;6.43;95.18
82986;BME280;72786;53.546;9.910;2024-02-14T04:00:40;100758.34;;;6.42;95.14
82986;BME280;72786;53.546;9.910;2024-02-14T04:03:06;100755.94;;;6.44;95.34
82986;BME280;72786;53.546;9.910;2024-02-14T04:05:33;100755.81;;;6.42;94.92
82986;BME280;72786;53.546;9.910;2024-02-14T04:07:59;100762.81;;;6.36;96.01
82986;BME280;72786;53.546;9.910;2024-02-14T04:10:26;100732.63;;;6.17;95.30
82986;BME280;72786;53.546;9.910;2024-02-14T04:12:52;100759.50;;;6.37;95.21
82986;BME280;72786;53.546;9.910;2024-02-14T04:15:19;100752.09;;;6.32;95.59
82986;BME280;72786;53.546;9.910;2024-02-14T04:17:45;100750.53;;;6.41;96.08
82986;BME280;72786;53.546;9.910;2024-02-14T04:20:12;100744.81;;;6.35;95.91
82986;BME280;72786;53.546;9.910;2024-02-14T04:22:39;100744.13;;;6.29;96.78
82986;BME280;72786;53.546;9.910;2024-02-14T04:25:07;100709.19;;;6.12;96.24
82986;BME280;72786;53.546;9.910;2024-02-14T04:27:33;100701.63;;;6.05;96.50
82986;BME280;72786;53.546;9.910;2024-02-14T04:30:01;100741.03;;;6.31;96.83
82986;BME280;72786;53.546;9.910;2024-02-14T04:32:28;100738.97;;;6.36;96.92
82986;BME280;72786;53.546;9.910;2024-02-14T04:34:54;100728.00;;;6.37;96.79
82986;BME280;72786;53.546;9.910;2024-02-14T04:37:21;100716.25;;;6.30;96.50
82986;BME280;72786;53.546;9.910;2024-02-14T04:39:48;100725.63;;;6.38;96.55
82986;BME280;72786;53.546;9.910;2024-02-14T04:42:14;100725.44;;;6.37;96.26
82986;BME280;72786;53.546;9.910;2024-02-14T04:44:41;100727.09;;;6.36;96.56
82986;BME280;72786;53.546;9.910;2024-02-14T04:47:07;100706.66;;;6.28;96.89
82986;BME280;72786;53.546;9.910;2024-02-14T04:49:35;100718.72;;;6.37;96.95
82986;BME280;72786;53.546;9.910;2024-02-14T04:52:04;100711.81;;;6.36;97.14
82986;BME280;72786;53.546;9.910;2024-02-14T04:54:30;100712.88;;;6.38;96.85
82986;BME280;72786;53.546;9.910;2024-02-14T04:56:57;100685.03;;;6.24;96.56
82986;BME280;72786;53.546;9.910;2024-02-14T04:59:28;100710.06;;;6.44;96.76
82986;BME280;72786;53.546;9.910;2024-02-14T05:01:54;100683.75;;;6.36;96.69
82986;BME280;72786;53.546;9.910;2024-02-14T05:04:22;100696.91;;;6.48;96.58
82986;BME280;72786;53.546;9.910;2024-02-14T05:06:49;100686.06;;;6.42;96.14
82986;BME280;72786;53.546;9.910;2024-02-14T05:09:19;100668.81;;;6.39;96.89
82986;BME280;72786;53.546;9.910;2024-02-14T05:11:46;100671.00;;;6.36;96.11
82986;BME280;72786;53.546;9.910;2024-02-14T05:14:12;100697.69;;;6.55;96.73
82986;BME280;72786;53.546;9.910;2024-02-14T05:16:39;100675.53;;;6.39;96.94
82986;BME280;72786;53.546;9.910;2024-02-14T05:19:05;100691.22;;;6.50;96.86
82986;BME280;72786;53.546;9.910;2024-02-14T05:21:32;100633.13;;;6.24;97.25
82986;BME280;72786;53.546;9.910;2024-02-14T05:23:58;100693.66;;;6.57;97.15
82986;BME280;72786;53.546;9.910;2024-02-14T05:26:25;100693.31;;;6.54;97.23
82986;BME280;72786;53.546;9.910;2024-02-14T05:28:51;100694.00;;;6.60;97.27
82986;BME280;72786;53.546;9.910;2024-02-14T05:31:18;100700.78;;;6.68;96.45
82986;BME280;72786;53.546;9.910;2024-02-14T05:33:44;100688.34;;;6.71;96.46
82986;BME280;72786;53.546;9.910;2024-02-14T05:36:11;100696.50;;;6.75;97.03
82986;BME280;72786;53.546;9.910;2024-02-14T05:38:38;100692.47;;;6.77;96.69
82986;BME280;72786;53.546;9.910;2024-02-14T05:41:04;100686.88;;;6.73;97.11
82986;BME280;72786;53.546;9.910;2024-02-14T05:43:31;100683.63;;;6.82;96.65
82986;BME280;72786;53.546;9.910;2024-02-14T05:45:57;100685.16;;;6.89;96.41
82986;BME280;72786;53.546;9.910;2024-02-14T05:48:24;100685.75;;;6.86;96.14
82986;BME280;72786;53.546;9.910;2024-02-14T05:50:50;100682.88;;;6.83;96.91
82986;BME280;72786;53.546;9.910;2024-02-14T05:53:17;100685.91;;;6.88;96.81
82986;BME280;72786;53.546;9.910;2024-02-14T05:55:44;100678.25;;;6.88;96.54
82986;BME280;72786;53.546;9.910;2024-02-14T05:58:10;100687.56;;;6.87;96.01
82986;BME280;72786;53.546;9.910;2024-02-14T06:00:38;100675.22;;;6.83;96.74
82986;BME280;72786;53.546;9.910;2024-02-14T06:03:05;100685.16;;;6.89;96.08
82986;BME280;72786;53.546;9.910;2024-02-14T06:05:33;100682.47;;;6.96;97.03
82986;BME280;72786;53.546;9.910;2024-02-14T06:07:59;100680.72;;;6.95;96.92
82986;BME280;72786;53.546;9.910;2024-02-14T06:10:26;100656.03;;;6.87;96.26
82986;BME280;72786;53.546;9.910;2024-02-14T06:12:52;100642.66;;;6.81;96.09
82986;BME280;72786;53.546;9.910;2024-02-14T06:15:19;100641.13;;;6.83;96.85
82986;BME280;72786;53.546;9.910;2024-02-14T06:17:45;100663.72;;;6.95;97.16
82986;BME280;72786;53.546;9.910;2024-02-14T06:20:12;100661.44;;;6.90;96.71
82986;BME280;72786;53.546;9.910;2024-02-14T06:22:39;100664.81;;;6.97;96.46
82986;BME280;72786;53.546;9.910;2024-02-14T06:25:15;100664.81;;;6.97;97.69
82986;BME280;72786;53.546;9.910;2024-02-14T06:27:42;100650.50;;;6.91;96.86
82986;BME280;72786;53.546;9.910;2024-02-14T06:30:10;100671.41;;;7.04;97.13
82986;BME280;72786;53.546;9.910;2024-02-14T06:32:36;100632.34;;;6.88;97.24
82986;BME280;72786;53.546;9.910;2024-02-14T06:35:03;100668.59;;;7.09;96.99
82986;BME280;72786;53.546;9.910;2024-02-14T06:37:30;100644.69;;;7.00;96.14
82986;BME280;72786;53.546;9.910;2024-02-14T06:40:10;100633.25;;;6.97;97.45
82986;BME280;72786;53.546;9.910;2024-02-14T06:42:37;100673.00;;;7.19;96.08
82986;BME280;72786;53.546;9.910;2024-02-14T06:45:06;100672.09;;;7.18;97.59
82986;BME280;72786;53.546;9.910;2024-02-14T06:47:33;100664.28;;;7.17;96.69
82986;BME280;72786;53.546;9.910;2024-02-14T06:49:59;100637.19;;;7.02;97.56
82986;BME280;72786;53.546;9.910;2024-02-14T06:52:26;100667.16;;;7.20;96.91
82986;BME280;72786;53.546;9.910;2024-02-14T06:54:52;100671.50;;;7.21;97.38
82986;BME280;72786;53.546;9.910;2024-02-14T06:57:19;100646.56;;;7.10;97.24
82986;BME280;72786;53.546;9.910;2024-02-14T06:59:45;100674.50;;;7.17;98.16
82986;BME280;72786;53.546;9.910;2024-02-14T07:02:12;100673.59;;;7.16;98.02
82986;BME280;72786;53.546;9.910;2024-02-14T07:04:39;100671.19;;;7.18;98.33
82986;BME280;72786;53.546;9.910;2024-02-14T07:07:06;100675.41;;;7.26;96.95
82986;BME280;72786;53.546;9.910;2024-02-14T07:09:34;100660.97;;;7.18;98.18
82986;BME280;72786;53.546;9.910;2024-02-14T07:12:03;100672.13;;;7.27;98.11
82986;BME280;72786;53.546;9.910;2024-02-14T07:14:29;100676.97;;;7.32;96.93
82986;BME280;72786;53.546;9.910;2024-02-14T07:16:56;100667.03;;;7.35;97.67
82986;BME280;72786;53.546;9.910;2024-02-14T07:19:22;100672.47;;;7.38;96.70
82986;BME280;72786;53.546;9.910;2024-02-14T07:21:49;100677.25;;;7.35;96.73
82986;BME280;72786;53.546;9.910;2024-02-14T07:24:15;100662.13;;;7.37;97.02
82986;BME280;72786;53.546;9.910;2024-02-14T07:26:42;100640.28;;;7.23;97.33
82986;BME280;72786;53.546;9.910;2024-02-14T07:29:10;100671.59;;;7.38;97.45
82986;BME280;72786;53.546;9.910;2024-02-14T07:31:37;100672.63;;;7.40;97.44
82986;BME280;72786;53.546;9.910;2024-02-14T07:34:04;100670.25;;;7.49;98.07
82986;BME280;72786;53.546;9.910;2024-02-14T07:36:35;100673.41;;;7.47;97.24
82986;BME280;72786;53.546;9.910;2024-02-14T07:39:01;100665.28;;;7.43;97.73
82986;BME280;72786;53.546;9.910;2024-02-14T07:41:28;100677.31;;;7.52;97.03
82986;BME280;72786;53.546;9.910;2024-02-14T07:43:54;100646.03;;;7.38;97.67
82986;BME280;72786;53.546;9.910;2024-02-14T07:46:23;100666.09;;;7.58;96.53
82986;BME280;72786;53.546;9.910;2024-02-14T07:48:50;100670.28;;;7.58;97.02
82986;BME280;72786;53.546;9.910;2024-02-14T07:51:16;100664.56;;;7.60;97.17
82986;BME280;72786;53.546;9.910;2024-02-14T07:53:45;100669.53;;;7.67;96.41
82986;BME280;72786;53.546;9.910;2024-02-14T07:56:11;100637.06;;;7.58;96.82
82986;BME280;72786;53.546;9.910;2024-02-14T07:58:38;100664.28;;;7.66;97.01
82986;BME280;72786;53.546;9.910;2024-02-14T08:01:05;100656.19;;;7.70;96.88
82986;BME280;72786;53.546;9.910;2024-02-14T08:03:31;100625.34;;;7.51;96.56
82986;BME280;72786;53.546;9.910;2024-02-14T08:05:58;100665.34;;;7.68;97.41
82986;BME280;72786;53.546;9.910;2024-02-14T08:08:25;100626.69;;;7.56;97.37
82986;BME280;72786;53.546;9.910;2024-02-14T08:10:53;100642.50;;;7.69;96.45
82986;BME280;72786;53.546;9.910;2024-02-14T08:13:21;100641.00;;;7.71;97.14
82986;BME280;72786;53.546;9.910;2024-02-14T08:15:47;100633.34;;;7.71;97.48
82986;BME280;72786;53.546;9.910;2024-02-14T08:18:14;100660.88;;;7.91;96.69
82986;BME280;72786;53.546;9.910;2024-02-14T08:20:41;100663.88;;;7.95;97.18
82986;BME280;72786;53.546;9.910;2024-02-14T08:23:08;100648.25;;;7.92;96.89
82986;BME280;72786;53.546;9.910;2024-02-14T08:25:34;100616.06;;;7.86;97.03
82986;BME280;72786;53.546;9.910;2024-02-14T08:28:01;100636.53;;;7.94;96.03
82986;BME280;72786;53.546;9.910;2024-02-14T08:30:27;100659.53;;;8.03;97.03
82986;BME280;72786;53.546;9.910;2024-02-14T08:32:54;100652.00;;;7.96;97.08
82986;BME280;72786;53.546;9.910;2024-02-14T08:35:20;100668.28;;;8.05;97.15
82986;BME280;72786;53.546;9.910;2024-02-14T08:37:47;100660.28;;;8.10;96.50
82986;BME280;72786;53.546;9.910;2024-02-14T08:40:14;100669.34;;;8.15;96.02
82986;BME280;72786;53.546;9.910;2024-02-14T08:42:40;100645.53;;;8.08;96.21
82986;BME280;72786;53.546;9.910;2024-02-14T08:45:08;100659.41;;;8.18;97.14
82986;BME280;72786;53.546;9.910;2024-02-14T08:47:35;100666.66;;;8.22;97.26
82986;BME280;72786;53.546;9.910;2024-02-14T08:50:01;100663.03;;;8.28;96.39
82986;BME280;72786;53.546;9.910;2024-02-14T08:52:29;100662.41;;;8.31;97.07
82986;BME280;72786;53.546;9.910;2024-02-14T08:54:56;100669.50;;;8.33;96.49
82986;BME280;72786;53.546;9.910;2024-02-14T08:57:22;100641.81;;;8.21;97.44
82986;BME280;72786;53.546;9.910;2024-02-14T08:59:49;100663.03;;;8.37;96.64
82986;BME280;72786;53.546;9.910;2024-02-14T09:02:16;100658.81;;;8.37;97.18
82986;BME280;72786;53.546;9.910;2024-02-14T09:04:43;100644.06;;;8.35;97.64
82986;BME280;72786;53.546;9.910;2024-02-14T09:07:12;100670.53;;;8.52;97.66
82986;BME280;72786;53.546;9.910;2024-02-14T09:09:39;100665.72;;;8.64;98.23
82986;BME280;72786;53.546;9.910;2024-02-14T09:12:06;100672.16;;;8.69;97.86
82986;BME280;72786;53.546;9.910;2024-02-14T09:14:32;100670.50;;;8.78;97.99
82986;BME280;72786;53.546;9.910;2024-02-14T09:16:59;100676.06;;;8.82;97.54
82986;BME280;72786;53.546;9.910;2024-02-14T09:19:25;100672.28;;;8.87;97.79
82986;BME280;72786;53.546;9.910;2024-02-14T09:21:53;100670.44;;;8.95;97.87
82986;BME280;72786;53.546;9.910;2024-02-14T09:24:20;100643.66;;;8.83;97.75
82986;BME280;72786;53.546;9.910;2024-02-14T09:26:47;100674.63;;;9.02;97.09
82986;BME280;72786;53.546;9.910;2024-02-14T09:29:13;100676.56;;;9.13;97.24
82986;BME280;72786;53.546;9.910;2024-02-14T09:31:41;100666.78;;;9.09;97.50
82986;BME280;72786;53.546;9.910;2024-02-14T09:34:08;100655.03;;;9.11;97.62
82986;BME280;72786;53.546;9.910;2024-02-14T09:36:37;100675.16;;;9.25;97.72
82986;BME280;72786;53.546;9.910;2024-02-14T09:39:03;100645.09;;;9.06;97.47
82986;BME280;72786;53.546;9.910;2024-02-14T09:41:40;100663.22;;;9.26;97.32
82986;BME280;72786;53.546;9.910;2024-02-14T09:44:09;100649.72;;;9.18;97.86
82986;BME280;72786;53.546;9.910;2024-02-14T09:46:36;100657.09;;;9.24;97.32
82986;BME280;72786;53.546;9.910;2024-02-14T09:49:03;100669.38;;;9.36;97.68
82986;BME280;72786;53.546;9.910;2024-02-14T09:51:32;100662.72;;;9.38;98.18
82986;BME280;72786;53.546;9.910;2024-02-14T09:53:59;100668.09;;;9.50;97.34
82986;BME280;72786;53.546;9.910;2024-02-14T09:56:27;100673.00;;;9.65;97.37
82986;BME280;72786;53.546;9.910;2024-02-14T09:58:54;100680.28;;;9.61;97.36
82986;BME280;72786;53.546;9.910;2024-02-14T10:01:26;100676.03;;;9.61;97.92
82986;BME280;72786;53.546;9.910;2024-02-14T10:03:53;100656.78;;;9.56;96.68
82986;BME280;72786;53.546;9.910;2024-02-14T10:06:21;100680.50;;;9.72;97.58
82986;BME280;72786;53.546;9.910;2024-02-14T10:08:48;100685.16;;;9.76;97.60
82986;BME280;72786;53.546;9.910;2024-02-14T10:11:30;100651.59;;;9.65;97.17
82986;BME280;72786;53.546;9.910;2024-02-14T10:13:58;100678.78;;;9.81;97.54
82986;BME280;72786;53.546;9.910;2024-02-14T10:16:29;100679.63;;;9.90;97.12
82986;BME280;72786;53.546;9.910;2024-02-14T10:18:55;100680.19;;;9.96;97.75
82986;BME280;72786;53.546;9.910;2024-02-14T10:21:25;100657.94;;;9.86;96.91
82986;BME280;72786;53.546;9.910;2024-02-14T10:23:54;100663.50;;;9.91;97.05
82986;BME280;72786;53.546;9.910;2024-02-14T10:26:24;100675.94;;;9.96;98.15
82986;BME280;72786;53.546;9.910;2024-02-14T10:28:50;100693.75;;;10.03;96.93
82986;BME280;72786;53.546;9.910;2024-02-14T10:31:17;100677.16;;;10.00;97.46
82986;BME280;72786;53.546;9.910;2024-02-14T10:33:44;100695.22;;;10.10;97.59
82986;BME280;72786;53.546;9.910;2024-02-14T10:36:12;100676.22;;;10.08;97.76
82986;BME280;72786;53.546;9.910;2024-02-14T10:38:39;100704.19;;;10.23;98.07
82986;BME280;72786;53.546;9.910;2024-02-14T10:41:07;100704.00;;;10.30;97.31
82986;BME280;72786;53.546;9.910;2024-02-14T10:43:36;100701.97;;;10.36;98.12
82986;BME280;72786;53.546;9.910;2024-02-14T10:46:08;100700.84;;;10.43;97.82
82986;BME280;72786;53.546;9.910;2024-02-14T10:48:38;100668.28;;;10.23;97.84
82986;BME280;72786;53.546;9.910;2024-02-14T10:51:08;100701.41;;;10.49;97.64
82986;BME280;72786;53.546;9.910;2024-02-14T10:53:39;100711.81;;;10.50;97.09
82986;BME280;72786;53.546;9.910;2024-02-14T10:56:09;100708.75;;;10.54;97.65
82986;BME280;72786;53.546;9.910;2024-02-14T10:58:35;100681.09;;;10.42;96.55
82986;BME280;72786;53.546;9.910;2024-02-14T11:01:03;100695.16;;;10.55;97.92
82986;BME280;72786;53.546;9.910;2024-02-14T11:03:29;100704.78;;;10.57;96.72
82986;BME280;72786;53.546;9.910;2024-02-14T11:06:01;100681.22;;;10.43;97.74
82986;BME280;72786;53.546;9.910;2024-02-14T11:08:30;100712.38;;;10.56;98.01
82986;BME280;72786;53.546;9.910;2024-02-14T11:11:01;100684.34;;;10.49;96.74
82986;BME280;72786;53.546;9.910;2024-02-14T11:13:31;100712.69;;;10.69;98.12
82986;BME280;72786;53.546;9.910;2024-02-14T11:16:01;100682.19;;;10.53;97.28
82986;BME280;72786;53.546;9.910;2024-02-14T11:18:28;100713.66;;;10.79;97.15
82986;BME280;72786;53.546;9.910;2024-02-14T11:21:03;100716.75;;;10.85;96.75
82986;BME280;72786;53.546;9.910;2024-02-14T11:23:31;100707.53;;;10.87;98.28
82986;BME280;72786;53.546;9.910;2024-02-14T11:26:01;100716.28;;;10.89;97.03
82986;BME280;72786;53.546;9.910;2024-02-14T11:28:29;100712.03;;;10.90;96.85
82986;BME280;72786;53.546;9.910;2024-02-14T11:31:02;100711.16;;;10.89;97.83
82986;BME280;72786;53.546;9.910;2024-02-14T11:33:30;100710.16;;;10.97;98.28
82986;BME280;72786;53.546;9.910;2024-02-14T11:36:01;100711.97;;;10.98;97.75
82986;BME280;72786;53.546;9.910;2024-02-14T11:38:34;100720.97;;;11.03;97.09
82986;BME280;72786;53.546;9.910;2024-02-14T11:41:02;100710.41;;;11.00;97.38
82986;BME280;72786;53.546;9.910;2024-02-14T11:43:30;100724.09;;;11.09;96.84
82986;BME280;72786;53.546;9.910;2024-02-14T11:45:58;100724.97;;;11.10;97.09
82986;BME280;72786;53.546;9.910;2024-02-14T11:48:24;100715.03;;;10.94;97.29
82986;BME280;72786;53.546;9.910;2024-02-14T11:50:53;100724.84;;;11.08;98.07
82986;BME280;72786;53.546;9.910;2024-02-14T11:53:20;100732.97;;;11.13;98.02
82986;BME280;72786;53.546;9.910;2024-02-14T11:55:47;100737.13;;;11.21;97.61
82986;BME280;72786;53.546;9.910;2024-02-14T11:58:15;100737.00;;;11.19;97.09
82986;BME280;72786;53.546;9.910;2024-02-14T12:00:43;100715.09;;;11.14;98.24
82986;BME280;72786;53.546;9.910;2024-02-14T12:03:16;100733.63;;;11.20;97.13
82986;BME280;72786;53.546;9.910;2024-02-14T12:05:45;100734.94;;;11.25;98.17
82986;BME280;72786;53.546;9.910;2024-02-14T12:08:14;100731.09;;;11.30;98.59
82986;BME280;72786;53.546;9.910;2024-02-14T12:10:44;100729.81;;;11.35;98.03
82986;BME280;72786;53.546;9.910;2024-02-14T12:13:17;100719.13;;;11.30;97.66
82986;BME280;72786;53.546;9.910;2024-02-14T12:15:47;100698.16;;;11.16;97.38
82986;BME280;72786;53.546;9.910;2024-02-14T12:18:14;100732.69;;;11.38;98.36
82986;BME280;72786;53.546;9.910;2024-02-14T12:20:42;100743.50;;;11.44;98.70
82986;BME280;72786;53.546;9.910;2024-02-14T12:23:16;100748.63;;;11.44;98.62
82986;BME280;72786;53.546;9.910;2024-02-14T12:25:47;100746.34;;;11.47;97.61
82986;BME280;72786;53.546;9.910;2024-02-14T12:28:15;100739.97;;;11.52;98.30
82986;BME280;72786;53.546;9.910;2024-02-14T12:30:47;100717.00;;;11.45;97.14
82986;BME280;72786;53.546;9.910;2024-02-14T12:33:27;100746.66;;;11.60;98.41
82986;BME280;72786;53.546;9.910;2024-02-14T12:35:55;100749.50;;;11.63;97.91
82986;BME280;72786;53.546;9.910;2024-02-14T12:38:23;100750.91;;;11.59;98.33
82986;BME280;72786;53.546;9.910;2024-02-14T12:40:50;100758.00;;;11.62;97.64
82986;BME280;72786;53.546;9.910;2024-02-14T12:43:19;100747.56;;;11.60;97.94
82986;BME280;72786;53.546;9.910;2024-02-14T12:45:45;100753.63;;;11.61;98.02
82986;BME280;72786;53.546;9.910;2024-02-14T12:48:12;100752.88;;;11.62;98.22
82986;BME280;72786;53.546;9.910;2024-02-14T12:50:40;100746.66;;;11.60;98.24
82986;BME280;72786;53.546;9.910;2024-02-14T12:53:14;100740.25;;;11.55;98.79
82986;BME280;72786;53.546;9.910;2024-02-14T12:55:40;100762.34;;;11.63;98.08
82986;BME280;72786;53.546;9.910;2024-02-14T12:58:07;100771.13;;;11.65;98.81